Latest Weather Observations for Barrow Island

IDW60801

Issued at 11:35 pm WST Friday 31 October 2014 (issued every 30 minutes, with the page automatically refreshed every 10 minutes)

About weather observations | Map of weather stations | Latest weather observations for WA | Other Formats
Station Details ID: 005094 Name: BARROW ISLAND AIRPORT Lat: -20.88 Lon: 115.41 Height: 6.4 m
Data from the previous 72 hours. | See also: Recent months at Barrow Island
Date/Time
WST
Temp
°C
App
Temp
°C
Dew
Point
Rel
Hum
%
Delta-T
°C
Wind Press
QNH
hPa
Press
MSL
hPa
Rain
since 9 am
mm
Dir
 
Spd
km/h
Gust
km/h
Spd
kts
Gust
kts
31/11:00pm 24.0 20.6 19.9 78 2.6 SW 37 43 20 23 1010.8 - 0.0
31/10:30pm 24.1 20.4 19.2 74 3.1 SW 37 43 20 23 1011.1 - 0.0
31/10:00pm 24.3 21.1 19.4 74 3.1 SW 35 44 19 24 1011.1 - 0.0
31/09:30pm 24.5 21.6 18.9 71 3.6 SW 32 39 17 21 1011.1 - 0.0
31/09:00pm 24.4 22.2 18.8 71 3.6 WSW 28 33 15 18 1011.0 1011.0 0.0
31/08:30pm 24.4 22.2 18.6 70 3.7 WSW 28 39 15 21 1010.8 - 0.0
31/08:00pm 24.4 21.9 18.8 71 3.6 WSW 30 37 16 20 1010.5 - 0.0
31/07:30pm 24.1 22.0 19.0 73 3.2 WSW 28 33 15 18 1010.2 - 0.0
31/07:00pm 24.3 22.7 19.1 73 3.3 WSW 26 32 14 17 1009.8 - 0.0
31/06:30pm 24.6 22.4 18.8 70 3.7 WSW 28 33 15 18 1009.6 - 0.0
31/06:00pm 25.2 22.2 18.6 67 4.2 WSW 32 39 17 21 1009.4 1009.4 0.0
31/05:30pm 25.8 22.2 17.7 61 5.1 WSW 33 39 18 21 1009.2 - 0.0
31/05:00pm 26.3 22.5 17.1 57 5.7 WSW 33 41 18 22 1009.0 - 0.0
31/04:30pm 27.3 22.5 15.6 48 7.1 WSW 35 43 19 23 1009.1 - 0.0
31/04:00pm 27.1 23.0 17.3 55 6.1 WSW 35 43 19 23 1009.2 - 0.0
31/03:30pm 27.0 23.5 17.8 57 5.8 SW 33 41 18 22 1009.5 - 0.0
31/03:00pm 27.0 23.4 18.6 60 5.4 WSW 35 43 19 23 1009.5 1009.5 0.0
31/02:30pm 26.6 23.0 18.5 61 5.2 SW 35 43 19 23 1009.8 - 0.0
31/02:00pm 26.5 22.2 17.8 58 5.5 SW 37 41 20 22 1010.2 - 0.0
31/01:30pm 26.3 23.0 18.4 61 5.0 SW 33 39 18 21 1010.6 - 0.0
31/01:00pm 25.9 22.5 18.1 62 4.9 SW 33 39 18 21 1011.0 - 0.0
31/12:30pm 26.1 22.6 18.8 64 4.7 SW 35 41 19 22 1011.5 - 0.0
31/12:00pm 25.6 21.4 18.0 63 4.8 SW 37 46 20 25 1011.9 1011.9 0.0
31/11:30am 25.4 21.4 18.6 66 4.3 SW 37 43 20 23 1012.1 - 0.0
31/11:00am 25.3 21.7 18.5 66 4.3 SW 35 43 19 23 1012.3 - 0.0
31/10:30am 24.6 20.5 18.3 68 4.0 SSW 37 43 20 23 1012.4 - 0.0
31/10:00am 24.5 21.1 18.9 71 3.6 SSW 35 41 19 22 1012.5 - 0.0
31/09:30am 23.9 20.1 18.1 70 3.6 SSW 35 43 19 23 1012.5 - 0.0
31/09:00am 23.7 20.4 18.4 72 3.3 SSW 33 39 18 21 1012.5 1012.5 0.0
31/08:30am 23.2 20.0 18.1 73 3.2 SSW 32 37 17 20 1012.5 - 0.0
31/08:00am 23.0 19.8 18.1 74 3.1 SSW 32 35 17 19 1012.4 - 0.0
31/07:30am 22.7 19.2 18.0 75 2.9 SSW 33 39 18 21 1012.5 - 0.0
31/07:00am 22.3 18.4 17.9 76 2.7 SSW 35 39 19 21 1012.3 - 0.0
31/06:30am 22.4 18.3 18.2 77 2.6 SSW 37 43 20 23 1012.3 - 0.0
31/06:00am 22.1 17.8 17.7 76 2.7 SSW 37 43 20 23 1012.0 1012.0 0.0
31/05:30am 22.4 18.2 18.0 76 2.7 SSW 37 44 20 24 1011.7 - 0.0
31/05:00am 22.3 18.1 18.1 77 2.6 SSW 37 44 20 24 1011.4 - 0.0
31/04:30am 22.4 17.5 18.2 77 2.6 SSW 41 48 22 26 1011.3 - 0.0
31/04:00am 22.9 17.7 18.4 76 2.8 SSW 43 50 23 27 1011.0 - 0.0
31/03:30am 23.2 18.1 18.5 75 3.0 SSW 43 50 23 27 1010.8 - 0.0
31/03:00am 23.3 18.4 18.2 73 3.2 SSW 41 48 22 26 1010.7 1010.7 0.0
31/02:30am 23.4 19.0 18.5 74 3.1 SSW 39 46 21 25 1010.5 - 0.0
31/02:00am 23.6 18.8 18.5 73 3.2 SSW 41 46 22 25 1010.4 - 0.0
31/01:30am 23.9 19.1 19.2 75 3.0 SSW 43 48 23 26 1010.6 - 0.0
31/01:00am 23.9 19.2 19.4 76 2.9 SSW 43 50 23 27 1010.9 - 0.0
31/12:30am 23.9 19.4 20.0 79 2.5 SSW 43 52 23 28 1011.2 - 0.0
31/12:00am 24.1 19.7 20.2 79 2.5 SSW 43 52 23 28 1011.4 1011.4 0.0
 
Date/Time
WST
Temp
°C
App
Temp
°C
Dew
Point
Rel
Hum
%
Delta-T
°C
Wind Press
QNH
hPa
Press
MSL
hPa
Rain
since 9 am
mm
Dir
 
Spd
km/h
Gust
km/h
Spd
kts
Gust
kts
30/11:30pm 24.1 19.6 19.8 77 2.8 SW 43 50 23 27 1011.7 - 0.0
30/11:00pm 24.2 19.1 19.1 73 3.3 SW 44 50 24 27 1011.9 - 0.0
30/10:30pm 24.2 19.2 20.1 78 2.7 SSW 46 56 25 30 1012.0 - 0.0
30/10:00pm 24.3 21.0 20.0 77 2.8 SW 37 46 20 25 1012.0 - 0.0
30/09:30pm 24.2 21.5 19.7 76 2.9 SW 33 39 18 21 1011.8 - 0.0
30/09:00pm 24.6 22.2 19.2 72 3.5 WSW 30 37 16 20 1011.6 1011.6 0.0
30/08:30pm 24.8 23.0 18.7 69 3.9 WSW 26 32 14 17 1011.4 - 0.0
30/08:00pm 24.9 22.7 18.6 68 4.0 WSW 28 32 15 17 1011.2 - 0.0
30/07:30pm 24.9 22.8 19.0 69 3.8 WSW 28 35 15 19 1010.9 - 0.0
30/07:00pm 25.0 22.5 19.8 73 3.4 WSW 32 37 17 20 1010.5 - 0.0
30/06:30pm 25.2 23.1 19.8 72 3.5 WSW 30 39 16 21 1010.1 - 0.0
30/06:00pm 25.9 23.4 19.8 69 4.0 WSW 32 39 17 21 1009.9 1009.9 0.0
30/05:30pm 26.4 23.8 19.8 67 4.3 WSW 33 41 18 22 1009.6 - 0.0
30/05:00pm 26.9 23.3 19.3 63 4.9 WSW 37 44 20 24 1009.5 - 0.0
30/04:30pm 27.7 24.2 18.7 58 5.8 WSW 35 44 19 24 1009.4 - 0.0
30/04:00pm 28.1 24.0 18.2 55 6.3 WSW 37 41 20 22 1009.5 - 0.0
30/03:30pm 28.1 24.6 18.8 57 6.0 WSW 35 44 19 24 1009.7 - 0.0
30/03:00pm 28.3 25.0 19.2 57 5.9 WSW 35 43 19 23 1009.9 1009.9 0.0
30/02:30pm 28.2 25.4 20.2 62 5.2 WSW 35 43 19 23 1010.1 - 0.0
30/02:00pm 28.6 26.0 19.8 59 5.7 WSW 33 41 18 22 1010.2 - 0.0
30/01:30pm 28.5 26.0 19.7 59 5.7 WSW 32 37 17 20 1010.5 - 0.0
30/01:00pm 28.7 26.4 19.3 56 6.1 WSW 30 37 16 20 1010.7 - 0.0
30/12:30pm 28.4 26.4 19.9 60 5.6 SW 30 35 16 19 1011.0 - 0.0
30/12:00pm 28.0 25.6 19.0 58 5.8 SW 30 35 16 19 1011.2 1011.2 0.0
30/11:30am 27.4 25.5 20.2 65 4.7 SW 30 35 16 19 1011.6 - 0.0
30/11:00am 27.3 25.5 20.4 66 4.5 SW 30 33 16 18 1011.8 - 0.0
30/10:30am 26.8 25.0 20.4 68 4.2 SW 30 33 16 18 1012.2 - 0.0
30/10:00am 26.3 24.0 20.2 69 4.0 SW 32 37 17 20 1012.4 - 0.0
30/09:30am 26.1 23.7 20.4 71 3.7 SSW 33 39 18 21 1012.4 - 0.0
30/09:00am 25.6 23.0 19.9 70 3.7 SSW 33 39 18 21 1012.2 1012.2 0.0
30/08:30am 25.7 24.0 20.5 73 3.4 SSW 30 35 16 19 1012.5 - 0.0
30/08:00am 25.3 23.4 20.1 73 3.4 SSW 30 33 16 18 1012.4 - 0.0
30/07:30am 24.9 23.6 19.9 74 3.2 SSW 26 32 14 17 1012.2 - 0.0
30/07:00am 24.6 22.6 19.9 75 3.0 SSW 30 33 16 18 1012.1 - 0.0
30/06:30am 24.4 22.7 19.9 76 2.9 SSW 28 32 15 17 1012.0 - 0.0
30/06:00am 24.1 22.8 19.8 77 2.8 SSW 26 32 14 17 1011.7 1011.7 0.0
30/05:30am 24.1 22.7 19.6 76 2.9 SSW 26 32 14 17 1011.5 - 0.0
30/05:00am 24.5 22.8 19.8 75 3.0 SSW 28 32 15 17 1011.4 - 0.0
30/04:30am 24.5 22.7 19.6 74 3.2 SSW 28 32 15 17 1011.2 - 0.0
30/04:00am 24.6 22.7 19.4 73 3.3 SSW 28 33 15 18 1011.1 - 0.0
30/03:30am 24.7 22.9 19.5 73 3.3 SSW 28 35 15 19 1011.0 - 0.0
30/03:00am 24.7 22.2 18.9 70 3.7 SSW 30 37 16 20 1010.9 1010.9 0.0
30/02:30am 24.6 21.3 18.3 68 4.0 SSW 33 39 18 21 1010.8 - 0.0
30/02:00am 24.6 21.6 19.0 71 3.6 SSW 33 39 18 21 1010.9 - 0.0
30/01:30am 24.6 21.8 19.4 73 3.3 SSW 33 41 18 22 1011.2 - 0.0
30/01:00am 24.8 21.9 20.1 75 3.0 SSW 35 39 19 21 1011.3 - 0.0
30/12:30am 24.6 21.9 20.5 78 2.7 SSW 35 43 19 23 1011.5 - 0.0
30/12:00am 24.4 21.4 20.7 80 2.4 SW 37 43 20 23 1011.7 1011.7 0.0
 
Date/Time
WST
Temp
°C
App
Temp
°C
Dew
Point
Rel
Hum
%
Delta-T
°C
Wind Press
QNH
hPa
Press
MSL
hPa
Rain
since 9 am
mm
Dir
 
Spd
km/h
Gust
km/h
Spd
kts
Gust
kts
29/11:30pm 24.5 21.4 20.4 78 2.7 SW 37 44 20 24 1012.0 - 0.0
29/11:00pm 24.3 22.1 20.4 79 2.5 SW 32 39 17 21 1012.0 - 0.0
29/10:30pm 24.1 22.7 20.4 80 2.4 SW 28 35 15 19 1012.2 - 0.0
29/10:00pm 24.1 22.6 20.2 79 2.5 WSW 28 33 15 18 1012.4 - 0.0
29/09:30pm 24.4 22.6 19.5 74 3.1 WSW 28 33 15 18 1012.2 - 0.0
29/09:00pm 24.5 22.5 18.2 68 4.0 WSW 26 32 14 17 1012.0 1012.0 0.0
29/08:30pm 24.6 22.9 19.0 71 3.6 WSW 26 32 14 17 1011.9 - 0.0
29/08:00pm 24.4 22.9 19.5 74 3.1 WSW 26 32 14 17 1011.7 - 0.0
29/07:30pm 24.6 23.9 20.3 77 2.8 WSW 24 30 13 16 1011.6 - 0.0
29/07:00pm 24.8 23.8 20.5 77 2.8 WSW 26 32 14 17 1011.4 - 0.0
29/06:30pm 25.3 24.6 20.3 74 3.3 WSW 24 32 13 17 1011.1 - 0.0
29/06:00pm 25.9 24.4 20.2 71 3.7 WSW 28 35 15 19 1011.0 1011.0 0.0
29/05:30pm 26.5 24.8 20.6 70 3.9 WSW 30 37 16 20 1010.8 - 0.0
29/05:00pm 26.9 25.1 20.3 67 4.3 WSW 30 35 16 19 1010.7 - 0.0
29/04:30pm 27.1 24.5 19.9 64 4.7 WSW 33 39 18 21 1010.6 - 0.0
29/04:00pm 28.1 25.3 19.1 58 5.8 WSW 32 39 17 21 1010.6 - 0.0
29/03:30pm 28.9 26.0 18.9 54 6.5 WSW 32 35 17 19 1010.7 - 0.0
29/03:00pm 28.8 26.5 19.4 56 6.1 WSW 30 35 16 19 1010.9 1010.9 0.0
29/02:30pm 28.8 27.3 20.3 60 5.6 WSW 28 33 15 18 1011.2 - 0.0
29/02:00pm 28.6 26.8 19.5 58 5.9 WSW 28 32 15 17 1011.3 - 0.0
29/01:30pm 28.8 28.0 20.0 59 5.8 SW 24 28 13 15 1011.5 - 0.0
29/01:00pm 27.8 27.2 20.6 65 4.7 SW 24 30 13 16 1011.9 - 0.0
29/12:30pm 27.7 27.1 20.5 65 4.7 SW 24 28 13 15 1012.3 - 0.0
29/12:00pm 26.8 25.5 19.9 66 4.5 SW 26 33 14 18 1012.8 1012.8 0.0
29/11:30am 27.0 26.4 20.6 68 4.2 SW 24 30 13 16 1013.0 - 0.0
29/11:00am 26.3 25.3 20.4 70 3.9 SSW 26 32 14 17 1013.0 - 0.0
29/10:30am 26.3 25.5 20.8 71 3.6 SSW 26 32 14 17 1013.3 - 0.0
29/10:00am 26.0 25.0 21.2 75 3.2 SW 28 33 15 18 1013.3 - 0.0
29/09:30am 25.7 24.4 21.4 77 2.8 SSW 30 35 16 19 1013.2 - 0.0
29/09:00am 24.7 22.4 20.2 76 2.9 SSW 32 35 17 19 1013.2 1013.2 0.0
29/08:30am 24.6 22.4 20.3 77 2.8 SSW 32 35 17 19 1013.2 - 0.0
29/08:00am 24.5 22.8 20.6 79 2.5 SSW 30 33 16 18 1012.8 - 0.0
29/07:30am 24.1 22.6 20.2 79 2.5 SSW 28 32 15 17 1012.7 - 0.0
29/07:00am 23.8 22.1 19.9 79 2.5 SSW 28 32 15 17 1012.5 - 0.0
29/06:30am 23.5 21.1 20.0 81 2.3 SSW 32 37 17 20 1012.1 - 0.0
29/06:00am 23.1 20.6 19.7 81 2.2 SW 32 37 17 20 1011.8 1011.8 0.0
29/05:30am 23.4 21.0 20.0 81 2.2 SW 32 37 17 20 1011.7 - 0.0
29/05:00am 23.7 21.3 20.0 80 2.4 SW 32 37 17 20 1011.5 - 0.0
29/04:30am 23.5 21.4 19.8 80 2.4 SW 30 35 16 19 1011.2 - 0.0
29/04:00am 23.7 22.9 20.0 80 2.4 SW 24 32 13 17 1011.0 - 0.0
29/03:30am 23.9 23.1 20.0 79 2.5 SW 24 28 13 15 1010.9 - 0.0
29/03:00am 24.3 23.3 20.4 79 2.5 SW 26 32 14 17 1010.7 1010.7 0.0
29/02:30am 24.3 22.6 20.6 80 2.4 SSW 30 35 16 19 1010.6 - 0.0
29/02:00am 24.4 22.7 20.5 79 2.5 SSW 30 35 16 19 1010.7 - 0.0
29/01:30am 24.4 23.6 20.9 81 2.3 SSW 26 32 14 17 1010.8 - 0.0
29/01:00am 24.3 22.5 20.4 79 2.5 SSW 30 35 16 19 1010.7 - 0.0
29/12:30am 24.4 22.7 20.5 79 2.5 SW 30 33 16 18 1010.9 - 0.0
29/12:00am 24.5 22.7 20.4 78 2.7 SW 30 35 16 19 1010.9 1010.9 0.0

Other Formats:

Comma delimited format used in spreadsheet applications
http://www.bom.gov.au/fwo/IDW60801/IDW60801.95304.axf

JavaScript Object Notation format (JSON) in row-major order
http://www.bom.gov.au/fwo/IDW60801/IDW60801.95304.json